sensor_id;sensor_type;location;lat;lon;timestamp;P1;durP1;ratioP1;P2;durP2;ratioP2
19879;SDS011;10102;50.828;4.416;2023-05-14T00:01:52;66.65;;;37.53;;
19879;SDS011;10102;50.828;4.416;2023-05-14T00:04:18;62.50;;;36.85;;
19879;SDS011;10102;50.828;4.416;2023-05-14T00:06:45;70.13;;;39.15;;
19879;SDS011;10102;50.828;4.416;2023-05-14T00:09:11;63.30;;;37.53;;
19879;SDS011;10102;50.828;4.416;2023-05-14T00:11:37;68.70;;;39.88;;
19879;SDS011;10102;50.828;4.416;2023-05-14T00:14:02;64.82;;;37.80;;
19879;SDS011;10102;50.828;4.416;2023-05-14T00:16:28;67.88;;;39.63;;
19879;SDS011;10102;50.828;4.416;2023-05-14T00:18:54;76.32;;;40.58;;
19879;SDS011;10102;50.828;4.416;2023-05-14T00:21:19;68.97;;;38.60;;
19879;SDS011;10102;50.828;4.416;2023-05-14T00:23:45;65.28;;;39.47;;
19879;SDS011;10102;50.828;4.416;2023-05-14T00:26:11;69.25;;;38.05;;
19879;SDS011;10102;50.828;4.416;2023-05-14T00:28:36;63.65;;;39.13;;
19879;SDS011;10102;50.828;4.416;2023-05-14T00:31:02;61.10;;;38.10;;
19879;SDS011;10102;50.828;4.416;2023-05-14T00:33:28;69.80;;;37.90;;
19879;SDS011;10102;50.828;4.416;2023-05-14T00:35:53;67.45;;;37.78;;
19879;SDS011;10102;50.828;4.416;2023-05-14T00:38:19;75.40;;;39.90;;
19879;SDS011;10102;50.828;4.416;2023-05-14T00:40:45;62.60;;;38.95;;
19879;SDS011;10102;50.828;4.416;2023-05-14T00:43:16;70.00;;;39.75;;
19879;SDS011;10102;50.828;4.416;2023-05-14T00:45:46;65.93;;;40.47;;
19879;SDS011;10102;50.828;4.416;2023-05-14T00:48:14;70.30;;;42.63;;
19879;SDS011;10102;50.828;4.416;2023-05-14T00:50:40;64.63;;;38.97;;
19879;SDS011;10102;50.828;4.416;2023-05-14T00:53:06;71.47;;;41.90;;
19879;SDS011;10102;50.828;4.416;2023-05-14T00:55:35;70.65;;;40.13;;
19879;SDS011;10102;50.828;4.416;2023-05-14T00:58:03;68.65;;;39.47;;
19879;SDS011;10102;50.828;4.416;2023-05-14T01:00:33;71.20;;;39.63;;
19879;SDS011;10102;50.828;4.416;2023-05-14T01:02:59;78.63;;;40.30;;
19879;SDS011;10102;50.828;4.416;2023-05-14T01:05:28;75.25;;;41.53;;
19879;SDS011;10102;50.828;4.416;2023-05-14T01:08:17;76.82;;;40.97;;
19879;SDS011;10102;50.828;4.416;2023-05-14T01:13:53;73.75;;;41.10;;
19879;SDS011;10102;50.828;4.416;2023-05-14T01:16:22;85.00;;;42.30;;
19879;SDS011;10102;50.828;4.416;2023-05-14T01:18:52;84.53;;;42.53;;
19879;SDS011;10102;50.828;4.416;2023-05-14T01:21:32;72.95;;;40.53;;
19879;SDS011;10102;50.828;4.416;2023-05-14T01:24:01;74.40;;;40.72;;
19879;SDS011;10102;50.828;4.416;2023-05-14T01:26:26;88.65;;;43.28;;
19879;SDS011;10102;50.828;4.416;2023-05-14T01:28:54;83.30;;;42.03;;
19879;SDS011;10102;50.828;4.416;2023-05-14T01:31:43;85.80;;;42.47;;
19879;SDS011;10102;50.828;4.416;2023-05-14T01:34:11;79.15;;;41.65;;
19879;SDS011;10102;50.828;4.416;2023-05-14T01:36:39;81.80;;;43.15;;
19879;SDS011;10102;50.828;4.416;2023-05-14T01:39:06;75.05;;;41.78;;
19879;SDS011;10102;50.828;4.416;2023-05-14T01:41:36;76.30;;;41.90;;
19879;SDS011;10102;50.828;4.416;2023-05-14T01:44:03;82.30;;;42.33;;
19879;SDS011;10102;50.828;4.416;2023-05-14T01:46:30;82.78;;;45.00;;
19879;SDS011;10102;50.828;4.416;2023-05-14T01:48:56;89.15;;;43.45;;
19879;SDS011;10102;50.828;4.416;2023-05-14T01:51:22;78.57;;;41.17;;
19879;SDS011;10102;50.828;4.416;2023-05-14T01:53:48;86.15;;;42.72;;
19879;SDS011;10102;50.828;4.416;2023-05-14T01:56:13;76.70;;;42.80;;
19879;SDS011;10102;50.828;4.416;2023-05-14T01:58:39;83.28;;;44.42;;
19879;SDS011;10102;50.828;4.416;2023-05-14T02:01:05;86.90;;;43.60;;
19879;SDS011;10102;50.828;4.416;2023-05-14T02:03:30;88.70;;;43.08;;
19879;SDS011;10102;50.828;4.416;2023-05-14T02:05:56;85.88;;;44.95;;
19879;SDS011;10102;50.828;4.416;2023-05-14T02:08:22;78.25;;;42.08;;
19879;SDS011;10102;50.828;4.416;2023-05-14T02:10:48;84.13;;;43.88;;
19879;SDS011;10102;50.828;4.416;2023-05-14T02:13:13;91.40;;;43.47;;
19879;SDS011;10102;50.828;4.416;2023-05-14T02:15:39;77.53;;;42.15;;
19879;SDS011;10102;50.828;4.416;2023-05-14T02:18:05;83.55;;;44.88;;
19879;SDS011;10102;50.828;4.416;2023-05-14T02:20:31;87.90;;;44.13;;
19879;SDS011;10102;50.828;4.416;2023-05-14T02:22:57;84.70;;;44.17;;
19879;SDS011;10102;50.828;4.416;2023-05-14T02:25:22;87.43;;;44.33;;
19879;SDS011;10102;50.828;4.416;2023-05-14T02:27:48;88.63;;;45.50;;
19879;SDS011;10102;50.828;4.416;2023-05-14T02:30:14;80.30;;;41.85;;
19879;SDS011;10102;50.828;4.416;2023-05-14T02:32:40;84.57;;;42.85;;
19879;SDS011;10102;50.828;4.416;2023-05-14T02:35:06;93.60;;;45.08;;
19879;SDS011;10102;50.828;4.416;2023-05-14T02:37:32;82.82;;;44.22;;
19879;SDS011;10102;50.828;4.416;2023-05-14T02:39:58;85.25;;;43.92;;
19879;SDS011;10102;50.828;4.416;2023-05-14T02:42:24;86.68;;;43.53;;
19879;SDS011;10102;50.828;4.416;2023-05-14T02:44:51;92.07;;;43.83;;
19879;SDS011;10102;50.828;4.416;2023-05-14T02:47:17;79.78;;;42.70;;
19879;SDS011;10102;50.828;4.416;2023-05-14T02:49:43;81.82;;;42.50;;
19879;SDS011;10102;50.828;4.416;2023-05-14T02:52:08;86.32;;;44.33;;
19879;SDS011;10102;50.828;4.416;2023-05-14T02:54:34;83.38;;;43.33;;
19879;SDS011;10102;50.828;4.416;2023-05-14T02:56:59;82.88;;;42.08;;
19879;SDS011;10102;50.828;4.416;2023-05-14T02:59:25;84.38;;;44.63;;
19879;SDS011;10102;50.828;4.416;2023-05-14T03:01:51;91.93;;;42.67;;
19879;SDS011;10102;50.828;4.416;2023-05-14T03:04:17;87.38;;;42.80;;
19879;SDS011;10102;50.828;4.416;2023-05-14T03:06:42;87.75;;;43.42;;
19879;SDS011;10102;50.828;4.416;2023-05-14T03:09:08;83.50;;;41.72;;
19879;SDS011;10102;50.828;4.416;2023-05-14T03:11:34;83.32;;;43.13;;
19879;SDS011;10102;50.828;4.416;2023-05-14T03:14:00;81.90;;;41.58;;
19879;SDS011;10102;50.828;4.416;2023-05-14T03:16:26;82.03;;;43.20;;
19879;SDS011;10102;50.828;4.416;2023-05-14T03:18:51;78.30;;;41.05;;
19879;SDS011;10102;50.828;4.416;2023-05-14T03:21:17;79.13;;;41.35;;
19879;SDS011;10102;50.828;4.416;2023-05-14T03:23:43;82.75;;;42.92;;
19879;SDS011;10102;50.828;4.416;2023-05-14T03:26:08;76.30;;;39.85;;
19879;SDS011;10102;50.828;4.416;2023-05-14T03:28:34;82.22;;;42.40;;
19879;SDS011;10102;50.828;4.416;2023-05-14T03:31:00;83.10;;;41.83;;
19879;SDS011;10102;50.828;4.416;2023-05-14T03:33:25;78.45;;;41.92;;
19879;SDS011;10102;50.828;4.416;2023-05-14T03:35:51;87.65;;;43.67;;
19879;SDS011;10102;50.828;4.416;2023-05-14T03:38:17;83.53;;;41.65;;
19879;SDS011;10102;50.828;4.416;2023-05-14T03:40:43;82.93;;;41.38;;
19879;SDS011;10102;50.828;4.416;2023-05-14T03:43:09;78.40;;;41.50;;
19879;SDS011;10102;50.828;4.416;2023-05-14T03:45:35;83.25;;;41.92;;
19879;SDS011;10102;50.828;4.416;2023-05-14T03:48:01;80.65;;;43.40;;
19879;SDS011;10102;50.828;4.416;2023-05-14T03:50:27;82.05;;;41.92;;
19879;SDS011;10102;50.828;4.416;2023-05-14T03:52:53;83.15;;;42.72;;
19879;SDS011;10102;50.828;4.416;2023-05-14T03:55:19;77.43;;;42.17;;
19879;SDS011;10102;50.828;4.416;2023-05-14T03:57:46;82.13;;;42.15;;
19879;SDS011;10102;50.828;4.416;2023-05-14T04:00:12;84.22;;;41.75;;
19879;SDS011;10102;50.828;4.416;2023-05-14T04:02:38;80.80;;;41.63;;
19879;SDS011;10102;50.828;4.416;2023-05-14T04:05:04;81.82;;;43.25;;
19879;SDS011;10102;50.828;4.416;2023-05-14T04:07:30;75.63;;;41.58;;
19879;SDS011;10102;50.828;4.416;2023-05-14T04:09:57;81.22;;;40.97;;
19879;SDS011;10102;50.828;4.416;2023-05-14T04:12:23;85.28;;;41.85;;
19879;SDS011;10102;50.828;4.416;2023-05-14T04:14:50;80.28;;;41.53;;
19879;SDS011;10102;50.828;4.416;2023-05-14T04:17:16;76.43;;;41.33;;
19879;SDS011;10102;50.828;4.416;2023-05-14T04:19:42;77.65;;;40.60;;
19879;SDS011;10102;50.828;4.416;2023-05-14T04:22:08;72.35;;;39.33;;
19879;SDS011;10102;50.828;4.416;2023-05-14T04:24:33;81.32;;;40.28;;
19879;SDS011;10102;50.828;4.416;2023-05-14T04:26:59;77.43;;;41.03;;
19879;SDS011;10102;50.828;4.416;2023-05-14T04:29:24;90.03;;;40.88;;
19879;SDS011;10102;50.828;4.416;2023-05-14T04:31:50;81.38;;;41.92;;
19879;SDS011;10102;50.828;4.416;2023-05-14T04:34:17;87.85;;;40.97;;
19879;SDS011;10102;50.828;4.416;2023-05-14T04:36:42;79.85;;;39.58;;
19879;SDS011;10102;50.828;4.416;2023-05-14T04:39:08;78.55;;;41.45;;
19879;SDS011;10102;50.828;4.416;2023-05-14T04:41:36;79.93;;;40.85;;
19879;SDS011;10102;50.828;4.416;2023-05-14T04:44:02;80.97;;;40.35;;
19879;SDS011;10102;50.828;4.416;2023-05-14T04:46:27;78.47;;;40.83;;
19879;SDS011;10102;50.828;4.416;2023-05-14T04:48:53;71.60;;;39.30;;
19879;SDS011;10102;50.828;4.416;2023-05-14T04:51:19;73.93;;;39.45;;
19879;SDS011;10102;50.828;4.416;2023-05-14T04:53:44;78.68;;;40.08;;
19879;SDS011;10102;50.828;4.416;2023-05-14T04:56:10;78.57;;;39.50;;
19879;SDS011;10102;50.828;4.416;2023-05-14T04:58:36;73.95;;;38.55;;
19879;SDS011;10102;50.828;4.416;2023-05-14T05:01:03;76.57;;;39.58;;
19879;SDS011;10102;50.828;4.416;2023-05-14T05:03:29;79.72;;;39.75;;
19879;SDS011;10102;50.828;4.416;2023-05-14T05:05:55;80.43;;;42.67;;
19879;SDS011;10102;50.828;4.416;2023-05-14T05:08:21;83.78;;;41.42;;
19879;SDS011;10102;50.828;4.416;2023-05-14T05:10:47;91.82;;;40.53;;
19879;SDS011;10102;50.828;4.416;2023-05-14T05:13:13;83.53;;;40.30;;
19879;SDS011;10102;50.828;4.416;2023-05-14T05:15:41;82.53;;;41.22;;
19879;SDS011;10102;50.828;4.416;2023-05-14T05:18:07;76.10;;;38.80;;
19879;SDS011;10102;50.828;4.416;2023-05-14T05:20:33;71.55;;;39.28;;
19879;SDS011;10102;50.828;4.416;2023-05-14T05:22:58;69.20;;;39.50;;
19879;SDS011;10102;50.828;4.416;2023-05-14T05:25:26;68.85;;;37.03;;
19879;SDS011;10102;50.828;4.416;2023-05-14T05:27:51;72.57;;;39.50;;
19879;SDS011;10102;50.828;4.416;2023-05-14T05:30:17;73.63;;;38.80;;
19879;SDS011;10102;50.828;4.416;2023-05-14T05:32:43;81.57;;;39.38;;
19879;SDS011;10102;50.828;4.416;2023-05-14T05:35:09;75.35;;;38.67;;
19879;SDS011;10102;50.828;4.416;2023-05-14T05:37:35;79.10;;;39.85;;
19879;SDS011;10102;50.828;4.416;2023-05-14T05:40:00;75.15;;;38.38;;
19879;SDS011;10102;50.828;4.416;2023-05-14T05:42:26;83.30;;;39.58;;
19879;SDS011;10102;50.828;4.416;2023-05-14T05:44:52;75.20;;;39.40;;
19879;SDS011;10102;50.828;4.416;2023-05-14T05:47:17;79.55;;;40.35;;
19879;SDS011;10102;50.828;4.416;2023-05-14T05:49:43;70.38;;;36.95;;
19879;SDS011;10102;50.828;4.416;2023-05-14T05:52:08;77.25;;;38.85;;
19879;SDS011;10102;50.828;4.416;2023-05-14T05:54:34;77.00;;;38.45;;
19879;SDS011;10102;50.828;4.416;2023-05-14T05:57:00;73.65;;;37.40;;
19879;SDS011;10102;50.828;4.416;2023-05-14T05:59:25;72.70;;;37.75;;
19879;SDS011;10102;50.828;4.416;2023-05-14T06:01:51;73.38;;;40.22;;
19879;SDS011;10102;50.828;4.416;2023-05-14T06:04:17;75.65;;;37.20;;
19879;SDS011;10102;50.828;4.416;2023-05-14T06:06:42;75.57;;;37.08;;
19879;SDS011;10102;50.828;4.416;2023-05-14T06:09:08;68.10;;;38.30;;
19879;SDS011;10102;50.828;4.416;2023-05-14T06:11:34;63.38;;;36.38;;
19879;SDS011;10102;50.828;4.416;2023-05-14T06:14:00;78.18;;;38.67;;
19879;SDS011;10102;50.828;4.416;2023-05-14T06:16:25;68.43;;;36.03;;
19879;SDS011;10102;50.828;4.416;2023-05-14T06:18:51;70.45;;;36.83;;
19879;SDS011;10102;50.828;4.416;2023-05-14T06:21:18;69.00;;;35.47;;
19879;SDS011;10102;50.828;4.416;2023-05-14T06:23:44;75.15;;;37.22;;
19879;SDS011;10102;50.828;4.416;2023-05-14T06:26:09;75.82;;;36.38;;
19879;SDS011;10102;50.828;4.416;2023-05-14T06:28:35;69.10;;;35.47;;
19879;SDS011;10102;50.828;4.416;2023-05-14T06:31:01;63.75;;;35.38;;
19879;SDS011;10102;50.828;4.416;2023-05-14T06:33:26;69.70;;;35.50;;
19879;SDS011;10102;50.828;4.416;2023-05-14T06:36:02;64.97;;;34.50;;
19879;SDS011;10102;50.828;4.416;2023-05-14T06:38:29;66.85;;;35.80;;
19879;SDS011;10102;50.828;4.416;2023-05-14T06:40:55;62.45;;;35.42;;
19879;SDS011;10102;50.828;4.416;2023-05-14T06:43:21;60.58;;;34.88;;
19879;SDS011;10102;50.828;4.416;2023-05-14T06:45:49;70.88;;;35.70;;
19879;SDS011;10102;50.828;4.416;2023-05-14T06:48:16;69.40;;;37.85;;
19879;SDS011;10102;50.828;4.416;2023-05-14T06:50:43;68.22;;;36.33;;
19879;SDS011;10102;50.828;4.416;2023-05-14T06:53:09;72.20;;;36.35;;
19879;SDS011;10102;50.828;4.416;2023-05-14T06:55:35;70.00;;;35.40;;
19879;SDS011;10102;50.828;4.416;2023-05-14T06:58:01;65.63;;;33.17;;
19879;SDS011;10102;50.828;4.416;2023-05-14T07:00:26;64.25;;;34.78;;
19879;SDS011;10102;50.828;4.416;2023-05-14T07:02:52;62.72;;;32.83;;
19879;SDS011;10102;50.828;4.416;2023-05-14T07:05:18;62.90;;;34.05;;
19879;SDS011;10102;50.828;4.416;2023-05-14T07:07:43;66.47;;;34.78;;
19879;SDS011;10102;50.828;4.416;2023-05-14T07:10:09;62.42;;;32.38;;
19879;SDS011;10102;50.828;4.416;2023-05-14T07:12:35;60.78;;;31.95;;
19879;SDS011;10102;50.828;4.416;2023-05-14T07:15:01;64.65;;;33.67;;
19879;SDS011;10102;50.828;4.416;2023-05-14T07:17:26;67.97;;;35.08;;
19879;SDS011;10102;50.828;4.416;2023-05-14T07:19:52;71.25;;;34.20;;
19879;SDS011;10102;50.828;4.416;2023-05-14T07:22:20;67.40;;;32.83;;
19879;SDS011;10102;50.828;4.416;2023-05-14T07:24:46;53.85;;;33.28;;
19879;SDS011;10102;50.828;4.416;2023-05-14T07:27:11;61.33;;;33.78;;
19879;SDS011;10102;50.828;4.416;2023-05-14T07:29:37;63.25;;;32.83;;
19879;SDS011;10102;50.828;4.416;2023-05-14T07:32:03;60.55;;;33.08;;
19879;SDS011;10102;50.828;4.416;2023-05-14T07:34:29;62.97;;;33.05;;
19879;SDS011;10102;50.828;4.416;2023-05-14T07:36:54;64.45;;;33.75;;
19879;SDS011;10102;50.828;4.416;2023-05-14T07:39:20;65.25;;;34.25;;
19879;SDS011;10102;50.828;4.416;2023-05-14T07:41:45;66.90;;;33.80;;
19879;SDS011;10102;50.828;4.416;2023-05-14T07:44:11;60.25;;;32.78;;
19879;SDS011;10102;50.828;4.416;2023-05-14T07:46:37;64.25;;;32.45;;
19879;SDS011;10102;50.828;4.416;2023-05-14T07:49:03;63.75;;;32.38;;
19879;SDS011;10102;50.828;4.416;2023-05-14T07:51:28;55.85;;;31.83;;
19879;SDS011;10102;50.828;4.416;2023-05-14T07:53:54;62.10;;;31.02;;
19879;SDS011;10102;50.828;4.416;2023-05-14T07:56:23;63.00;;;32.85;;
19879;SDS011;10102;50.828;4.416;2023-05-14T07:58:49;53.58;;;30.77;;
19879;SDS011;10102;50.828;4.416;2023-05-14T08:01:15;56.88;;;31.80;;
19879;SDS011;10102;50.828;4.416;2023-05-14T08:03:41;60.60;;;33.13;;
19879;SDS011;10102;50.828;4.416;2023-05-14T08:06:06;52.88;;;30.95;;
19879;SDS011;10102;50.828;4.416;2023-05-14T08:08:32;57.05;;;31.98;;
19879;SDS011;10102;50.828;4.416;2023-05-14T08:10:58;57.47;;;31.65;;
19879;SDS011;10102;50.828;4.416;2023-05-14T08:13:24;53.83;;;32.65;;
19879;SDS011;10102;50.828;4.416;2023-05-14T08:15:49;58.95;;;32.58;;
19879;SDS011;10102;50.828;4.416;2023-05-14T08:18:15;56.03;;;31.20;;
19879;SDS011;10102;50.828;4.416;2023-05-14T08:20:40;51.47;;;30.40;;
19879;SDS011;10102;50.828;4.416;2023-05-14T08:23:06;57.20;;;31.63;;
19879;SDS011;10102;50.828;4.416;2023-05-14T08:25:33;57.55;;;31.77;;
19879;SDS011;10102;50.828;4.416;2023-05-14T08:27:59;50.63;;;31.58;;
19879;SDS011;10102;50.828;4.416;2023-05-14T08:30:25;59.22;;;29.10;;
19879;SDS011;10102;50.828;4.416;2023-05-14T08:32:51;50.72;;;29.80;;
19879;SDS011;10102;50.828;4.416;2023-05-14T08:35:17;50.85;;;29.65;;
19879;SDS011;10102;50.828;4.416;2023-05-14T08:37:43;48.40;;;29.45;;
19879;SDS011;10102;50.828;4.416;2023-05-14T08:40:09;51.17;;;30.42;;
19879;SDS011;10102;50.828;4.416;2023-05-14T08:42:36;49.10;;;28.98;;
19879;SDS011;10102;50.828;4.416;2023-05-14T08:45:08;49.70;;;29.25;;
19879;SDS011;10102;50.828;4.416;2023-05-14T08:47:49;44.65;;;27.23;;
19879;SDS011;10102;50.828;4.416;2023-05-14T08:50:15;46.85;;;27.63;;
19879;SDS011;10102;50.828;4.416;2023-05-14T08:52:41;41.95;;;26.83;;
19879;SDS011;10102;50.828;4.416;2023-05-14T08:55:08;41.45;;;24.90;;
19879;SDS011;10102;50.828;4.416;2023-05-14T08:57:35;39.28;;;25.15;;
19879;SDS011;10102;50.828;4.416;2023-05-14T09:00:02;38.75;;;25.10;;
19879;SDS011;10102;50.828;4.416;2023-05-14T09:02:38;34.40;;;24.27;;
19879;SDS011;10102;50.828;4.416;2023-05-14T09:05:05;37.55;;;23.65;;
19879;SDS011;10102;50.828;4.416;2023-05-14T09:07:33;44.08;;;24.80;;
19879;SDS011;10102;50.828;4.416;2023-05-14T09:10:00;45.95;;;26.73;;
19879;SDS011;10102;50.828;4.416;2023-05-14T09:12:26;37.28;;;23.80;;
19879;SDS011;10102;50.828;4.416;2023-05-14T09:14:52;40.72;;;24.55;;
19879;SDS011;10102;50.828;4.416;2023-05-14T09:17:18;45.97;;;25.83;;
19879;SDS011;10102;50.828;4.416;2023-05-14T09:19:44;38.70;;;24.35;;
19879;SDS011;10102;50.828;4.416;2023-05-14T09:22:16;40.03;;;24.65;;
19879;SDS011;10102;50.828;4.416;2023-05-14T09:24:43;42.80;;;25.10;;
19879;SDS011;10102;50.828;4.416;2023-05-14T09:27:14;36.25;;;25.65;;
19879;SDS011;10102;50.828;4.416;2023-05-14T09:29:46;48.47;;;26.45;;
19879;SDS011;10102;50.828;4.416;2023-05-14T09:32:12;45.78;;;25.75;;
19879;SDS011;10102;50.828;4.416;2023-05-14T09:34:38;36.45;;;24.42;;
19879;SDS011;10102;50.828;4.416;2023-05-14T09:37:05;38.67;;;24.77;;
19879;SDS011;10102;50.828;4.416;2023-05-14T09:39:32;40.90;;;24.92;;
19879;SDS011;10102;50.828;4.416;2023-05-14T09:42:02;34.47;;;23.95;;
19879;SDS011;10102;50.828;4.416;2023-05-14T09:44:28;38.38;;;23.48;;
19879;SDS011;10102;50.828;4.416;2023-05-14T09:46:54;37.35;;;22.83;;
19879;SDS011;10102;50.828;4.416;2023-05-14T09:49:20;31.20;;;23.27;;
19879;SDS011;10102;50.828;4.416;2023-05-14T09:51:47;31.75;;;22.98;;
19879;SDS011;10102;50.828;4.416;2023-05-14T09:54:13;31.38;;;23.15;;
19879;SDS011;10102;50.828;4.416;2023-05-14T09:56:38;38.13;;;23.10;;
19879;SDS011;10102;50.828;4.416;2023-05-14T09:59:04;37.70;;;24.00;;
19879;SDS011;10102;50.828;4.416;2023-05-14T10:01:30;36.13;;;24.50;;
19879;SDS011;10102;50.828;4.416;2023-05-14T10:03:57;32.08;;;22.10;;
19879;SDS011;10102;50.828;4.416;2023-05-14T10:06:24;36.15;;;22.77;;
19879;SDS011;10102;50.828;4.416;2023-05-14T10:08:59;35.78;;;22.92;;
19879;SDS011;10102;50.828;4.416;2023-05-14T10:11:27;33.20;;;23.92;;
19879;SDS011;10102;50.828;4.416;2023-05-14T10:19:09;35.00;;;24.30;;
19879;SDS011;10102;50.828;4.416;2023-05-14T10:21:36;33.13;;;23.80;;
19879;SDS011;10102;50.828;4.416;2023-05-14T10:24:03;31.42;;;21.73;;
19879;SDS011;10102;50.828;4.416;2023-05-14T10:26:30;31.50;;;22.95;;
19879;SDS011;10102;50.828;4.416;2023-05-14T10:28:57;36.60;;;22.85;;
19879;SDS011;10102;50.828;4.416;2023-05-14T10:32:08;31.58;;;23.02;;
19879;SDS011;10102;50.828;4.416;2023-05-14T10:37:05;29.67;;;20.85;;
19879;SDS011;10102;50.828;4.416;2023-05-14T10:44:58;26.15;;;20.73;;
19879;SDS011;10102;50.828;4.416;2023-05-14T10:47:26;30.10;;;21.48;;
19879;SDS011;10102;50.828;4.416;2023-05-14T10:49:59;27.25;;;21.50;;
19879;SDS011;10102;50.828;4.416;2023-05-14T10:52:30;35.10;;;21.63;;
19879;SDS011;10102;50.828;4.416;2023-05-14T10:54:56;29.65;;;21.75;;
19879;SDS011;10102;50.828;4.416;2023-05-14T10:57:24;33.72;;;21.30;;
19879;SDS011;10102;50.828;4.416;2023-05-14T10:59:52;28.98;;;21.02;;
19879;SDS011;10102;50.828;4.416;2023-05-14T11:02:27;32.90;;;21.02;;
19879;SDS011;10102;50.828;4.416;2023-05-14T11:07:27;27.85;;;19.08;;
19879;SDS011;10102;50.828;4.416;2023-05-14T11:10:02;24.55;;;17.92;;
19879;SDS011;10102;50.828;4.416;2023-05-14T11:12:28;24.08;;;18.30;;
19879;SDS011;10102;50.828;4.416;2023-05-14T11:14:58;26.10;;;18.00;;
19879;SDS011;10102;50.828;4.416;2023-05-14T11:17:26;24.90;;;17.88;;
19879;SDS011;10102;50.828;4.416;2023-05-14T11:19:53;26.13;;;19.85;;
19879;SDS011;10102;50.828;4.416;2023-05-14T11:22:19;32.97;;;18.48;;
19879;SDS011;10102;50.828;4.416;2023-05-14T11:24:45;25.38;;;18.05;;
19879;SDS011;10102;50.828;4.416;2023-05-14T11:27:11;23.50;;;16.48;;
19879;SDS011;10102;50.828;4.416;2023-05-14T11:29:37;24.33;;;16.77;;
19879;SDS011;10102;50.828;4.416;2023-05-14T11:32:04;28.13;;;18.05;;
19879;SDS011;10102;50.828;4.416;2023-05-14T11:34:30;21.70;;;15.57;;
19879;SDS011;10102;50.828;4.416;2023-05-14T11:36:56;22.25;;;16.25;;
19879;SDS011;10102;50.828;4.416;2023-05-14T11:39:22;25.20;;;16.58;;
19879;SDS011;10102;50.828;4.416;2023-05-14T11:41:47;17.90;;;15.23;;
19879;SDS011;10102;50.828;4.416;2023-05-14T11:44:13;23.73;;;17.27;;
19879;SDS011;10102;50.828;4.416;2023-05-14T11:46:39;18.95;;;16.73;;
19879;SDS011;10102;50.828;4.416;2023-05-14T11:49:05;20.50;;;17.38;;
19879;SDS011;10102;50.828;4.416;2023-05-14T11:51:31;24.25;;;17.65;;
19879;SDS011;10102;50.828;4.416;2023-05-14T11:53:57;22.70;;;16.88;;
19879;SDS011;10102;50.828;4.416;2023-05-14T11:56:25;18.77;;;16.40;;
19879;SDS011;10102;50.828;4.416;2023-05-14T11:58:56;19.73;;;17.15;;
19879;SDS011;10102;50.828;4.416;2023-05-14T12:01:22;22.15;;;16.60;;
19879;SDS011;10102;50.828;4.416;2023-05-14T12:03:49;19.42;;;16.80;;
19879;SDS011;10102;50.828;4.416;2023-05-14T12:06:14;25.40;;;15.70;;
19879;SDS011;10102;50.828;4.416;2023-05-14T12:08:40;23.55;;;19.77;;
19879;SDS011;10102;50.828;4.416;2023-05-14T12:11:06;21.17;;;17.13;;
19879;SDS011;10102;50.828;4.416;2023-05-14T12:13:33;21.15;;;15.75;;
19879;SDS011;10102;50.828;4.416;2023-05-14T12:16:00;20.58;;;15.88;;
19879;SDS011;10102;50.828;4.416;2023-05-14T12:18:27;18.75;;;14.57;;
19879;SDS011;10102;50.828;4.416;2023-05-14T12:20:55;18.65;;;15.70;;
19879;SDS011;10102;50.828;4.416;2023-05-14T12:23:26;17.80;;;15.90;;
19879;SDS011;10102;50.828;4.416;2023-05-14T12:26:03;16.48;;;14.80;;
19879;SDS011;10102;50.828;4.416;2023-05-14T12:28:32;16.95;;;15.05;;
19879;SDS011;10102;50.828;4.416;2023-05-14T12:30:59;18.83;;;16.85;;
19879;SDS011;10102;50.828;4.416;2023-05-14T12:33:25;16.33;;;14.07;;
19879;SDS011;10102;50.828;4.416;2023-05-14T12:35:54;22.17;;;15.98;;
19879;SDS011;10102;50.828;4.416;2023-05-14T12:38:25;17.27;;;15.45;;
19879;SDS011;10102;50.828;4.416;2023-05-14T12:40:51;23.33;;;15.45;;
19879;SDS011;10102;50.828;4.416;2023-05-14T12:43:17;19.83;;;15.50;;
19879;SDS011;10102;50.828;4.416;2023-05-14T12:45:43;19.15;;;15.50;;
19879;SDS011;10102;50.828;4.416;2023-05-14T12:48:09;20.50;;;15.35;;
19879;SDS011;10102;50.828;4.416;2023-05-14T12:50:37;17.65;;;15.30;;
19879;SDS011;10102;50.828;4.416;2023-05-14T12:53:03;19.17;;;14.35;;
19879;SDS011;10102;50.828;4.416;2023-05-14T12:55:29;21.30;;;15.70;;
19879;SDS011;10102;50.828;4.416;2023-05-14T12:57:55;19.40;;;14.00;;
19879;SDS011;10102;50.828;4.416;2023-05-14T13:00:21;17.45;;;13.13;;
19879;SDS011;10102;50.828;4.416;2023-05-14T13:02:47;19.40;;;14.25;;
19879;SDS011;10102;50.828;4.416;2023-05-14T13:05:13;16.02;;;14.05;;
19879;SDS011;10102;50.828;4.416;2023-05-14T13:07:38;18.02;;;14.25;;
19879;SDS011;10102;50.828;4.416;2023-05-14T13:10:04;15.70;;;14.05;;
19879;SDS011;10102;50.828;4.416;2023-05-14T13:12:30;19.27;;;14.00;;
19879;SDS011;10102;50.828;4.416;2023-05-14T13:14:56;17.50;;;14.57;;
19879;SDS011;10102;50.828;4.416;2023-05-14T13:17:22;16.20;;;12.70;;
19879;SDS011;10102;50.828;4.416;2023-05-14T13:19:47;15.77;;;12.77;;
19879;SDS011;10102;50.828;4.416;2023-05-14T13:22:13;14.85;;;11.32;;
19879;SDS011;10102;50.828;4.416;2023-05-14T13:24:40;15.10;;;13.15;;
19879;SDS011;10102;50.828;4.416;2023-05-14T13:27:06;19.90;;;16.08;;
19879;SDS011;10102;50.828;4.416;2023-05-14T13:29:32;17.23;;;14.45;;
19879;SDS011;10102;50.828;4.416;2023-05-14T13:31:57;15.18;;;13.57;;
19879;SDS011;10102;50.828;4.416;2023-05-14T13:34:23;17.33;;;13.15;;
19879;SDS011;10102;50.828;4.416;2023-05-14T13:36:49;15.48;;;13.00;;
19879;SDS011;10102;50.828;4.416;2023-05-14T13:39:14;14.30;;;12.63;;
19879;SDS011;10102;50.828;4.416;2023-05-14T13:41:40;17.75;;;15.40;;
19879;SDS011;10102;50.828;4.416;2023-05-14T13:44:06;17.02;;;13.95;;
19879;SDS011;10102;50.828;4.416;2023-05-14T13:46:31;16.45;;;12.80;;
19879;SDS011;10102;50.828;4.416;2023-05-14T13:48:57;14.13;;;12.65;;
19879;SDS011;10102;50.828;4.416;2023-05-14T13:51:23;16.40;;;12.57;;
19879;SDS011;10102;50.828;4.416;2023-05-14T13:53:49;17.63;;;12.77;;
19879;SDS011;10102;50.828;4.416;2023-05-14T13:56:15;15.68;;;12.10;;
19879;SDS011;10102;50.828;4.416;2023-05-14T13:58:40;12.98;;;10.25;;
19879;SDS011;10102;50.828;4.416;2023-05-14T14:01:06;21.70;;;11.90;;
19879;SDS011;10102;50.828;4.416;2023-05-14T14:03:32;13.63;;;11.23;;
19879;SDS011;10102;50.828;4.416;2023-05-14T14:05:57;13.93;;;10.45;;
19879;SDS011;10102;50.828;4.416;2023-05-14T14:08:23;14.90;;;10.98;;
19879;SDS011;10102;50.828;4.416;2023-05-14T14:10:49;17.15;;;10.45;;
19879;SDS011;10102;50.828;4.416;2023-05-14T14:13:15;16.48;;;11.63;;
19879;SDS011;10102;50.828;4.416;2023-05-14T14:15:41;13.38;;;10.63;;
19879;SDS011;10102;50.828;4.416;2023-05-14T14:18:07;14.10;;;12.20;;
19879;SDS011;10102;50.828;4.416;2023-05-14T14:20:33;17.02;;;12.40;;
19879;SDS011;10102;50.828;4.416;2023-05-14T14:22:59;14.73;;;11.82;;
19879;SDS011;10102;50.828;4.416;2023-05-14T14:25:25;16.70;;;10.63;;
19879;SDS011;10102;50.828;4.416;2023-05-14T14:27:50;19.42;;;11.57;;
19879;SDS011;10102;50.828;4.416;2023-05-14T14:30:16;12.73;;;9.65;;
19879;SDS011;10102;50.828;4.416;2023-05-14T14:32:47;13.20;;;11.02;;
19879;SDS011;10102;50.828;4.416;2023-05-14T14:35:14;16.20;;;10.40;;
19879;SDS011;10102;50.828;4.416;2023-05-14T14:37:43;13.38;;;10.93;;